Time;durP1;ratioP1;P1;durP2;ratioP2;P2;SDS_P1;SDS_P2;PMS_P1;PMS_P2;Temp;Humidity;BMP_temperature;BMP_pressure;BME280_temperature;BME280_humidity;BME280_pressure;Samples;Min_cycle;Max_cycle;Signal;HPM_P1;HPM_P2
2023/05/21 00:02:40;;;;;;;21.63;12.93;;;;;;;12.25;98.34;97616.81;10366215;28;20036;-53
2023/05/21 00:07:39;;;;;;;21.58;14.98;;;;;;;12.22;98.42;97632.41;10365514;28;20072;-48
2023/05/21 00:12:40;;;;;;;23.33;15.05;;;;;;;12.15;97.89;97602.16;10365693;28;20059;-51
2023/05/21 00:17:39;;;;;;;25.33;14.63;;;;;;;12.18;99.06;97620.34;10365186;28;21519;-51
2023/05/21 00:22:39;;;;;;;;;;;;;;;12.06;98.89;97617.84;10367670;28;20045;-51
2023/05/21 00:27:38;;;;;;;27.23;16.95;;;;;;;11.99;98.93;97610.97;10370922;28;20011;-51
2023/05/21 00:32:36;;;;;;;;;;;;;;;11.94;99.68;97610.16;10372545;28;20060;-50
2023/05/21 00:37:35;;;;;;;20.73;13.93;;;;;;;11.94;99.38;97604.94;10371854;28;19919;-51
2023/05/21 00:42:39;;;;;;;;;;;;;;;11.98;98.95;97617.91;10373111;28;20174;-49
2023/05/21 00:47:38;;;;;;;22.73;14.57;;;;;;;12.04;98.74;97611.78;10371423;28;19962;-50
2023/05/21 00:52:40;;;;;;;;;;;;;;;12.05;98.53;97610.94;10372255;28;20468;-49
2023/05/21 00:57:41;;;;;;;30.98;18.48;;;;;;;11.39;98.77;97497.13;10371117;28;20434;-50
2023/05/21 01:02:40;;;;;;;31.98;17.77;;;;;;;12.12;99.18;97594.38;10369988;28;20069;-49
2023/05/21 01:07:40;;;;;;;33.20;19.20;;;;;;;12.15;99.24;97596.09;10370775;28;20111;-49
2023/05/21 01:12:42;;;;;;;37.65;19.40;;;;;;;12.23;99.44;97607.28;10371408;28;20057;-50
2023/05/21 01:17:44;;;;;;;42.45;22.23;;;;;;;12.34;99.41;97596.78;10370462;28;20068;-51
2023/05/21 01:22:49;;;;;;;51.72;21.98;;;;;;;12.36;99.70;97593.28;10370457;28;20131;-51
2023/05/21 01:27:48;;;;;;;39.60;18.63;;;;;;;11.72;100.00;97501.16;10369675;28;20449;-51
2023/05/21 01:33:00;;;;;;;32.67;17.70;;;;;;;12.32;100.00;97596.78;10370243;28;20087;-51
2023/05/21 01:38:21;;;;;;;29.48;15.32;;;;;;;12.29;99.68;97592.50;10365956;28;20599;-49
2023/05/21 01:43:21;;;;;;;29.52;16.70;;;;;;;12.00;99.34;97573.69;10369346;28;20111;-50
2023/05/21 01:48:24;;;;;;;54.20;21.92;;;;;;;12.17;99.58;97609.94;10370202;28;20187;-49
2023/05/21 01:53:23;;;;;;;56.30;25.50;;;;;;;12.09;100.00;97602.22;10369685;28;20072;-51
2023/05/21 01:58:23;;;;;;;;;;;;;;;12.09;100.00;97603.09;10369090;28;20140;-52
2023/05/21 02:03:24;;;;;;;64.30;26.23;;;;;;;12.18;99.78;97604.75;10369607;28;20077;-51
2023/05/21 02:08:24;;;;;;;57.88;26.33;;;;;;;12.16;99.42;97584.78;10368626;28;20071;-51
2023/05/21 02:13:23;;;;;;;61.13;27.88;;;;;;;11.96;99.83;97546.84;10368420;28;20056;-50
2023/05/21 02:18:22;;;;;;;53.03;26.45;;;;;;;12.25;100.00;97592.50;10368780;28;20104;-51
2023/05/21 02:23:21;;;;;;;;;;;;;;;12.32;100.00;97588.13;10368572;28;20036;-49
2023/05/21 02:28:20;;;;;;;45.42;23.35;;;;;;;12.35;99.98;97596.78;10366344;28;19952;-49
2023/05/21 02:33:20;;;;;;;;;;;;;;;12.41;100.00;97588.91;10367343;28;20108;-50
2023/05/21 02:38:21;;;;;;;;;;;;;;;12.46;99.74;97583.63;10367739;28;20040;-51
2023/05/21 02:43:20;;;;;;;57.60;24.30;;;;;;;12.45;99.58;97584.53;10368455;28;19952;-49
2023/05/21 02:48:19;;;;;;;;;;;;;;;12.52;99.52;97588.78;10367366;28;20037;-51
2023/05/21 02:53:18;;;;;;;47.85;24.00;;;;;;;12.56;99.37;97593.09;10364607;28;20003;-51
2023/05/21 02:58:17;;;;;;;;;;;;;;;12.59;99.51;97589.59;10364742;28;20120;-51
2023/05/21 03:03:16;;;;;;;39.95;21.10;;;;;;;12.64;99.27;97580.81;10364808;28;19917;-49
2023/05/21 03:08:15;;;;;;;;;;;;;;;12.67;99.45;97591.22;10365344;28;20039;-49
2023/05/21 03:13:14;;;;;;;45.87;22.23;;;;;;;12.75;99.60;97585.91;10366750;28;20267;-50
2023/05/21 03:18:13;;;;;;;;;;;;;;;12.85;99.52;97591.88;10367263;28;21327;-52
2023/05/21 03:23:12;;;;;;;31.87;17.50;;;;;;;12.86;99.54;97586.66;10366734;28;19917;-51
2023/05/21 03:28:11;;;;;;;29.40;17.88;;;;;;;12.88;99.84;97590.09;10366253;28;20110;-50
2023/05/21 03:33:11;;;;;;;;;;;;;;;12.90;99.78;97587.44;10367086;28;20021;-52
2023/05/21 03:38:10;;;;;;;27.08;15.98;;;;;;;12.96;99.78;97590.00;10366067;28;20375;-51
2023/05/21 03:43:08;;;;;;;;;;;;;;;12.94;99.12;97586.53;10366431;28;20545;-52
2023/05/21 03:48:07;;;;;;;26.92;15.57;;;;;;;12.99;98.94;97583.88;10366075;28;20236;-51
2023/05/21 03:53:06;;;;;;;30.15;15.95;;;;;;;12.82;98.77;97550.25;10365638;28;20116;-49
2023/05/21 03:58:05;;;;;;;31.63;14.70;;;;;;;13.00;99.25;97578.66;10371761;28;20115;-52
2023/05/21 04:03:05;;;;;;;;;;;;;;;13.03;98.63;97581.22;10374897;28;20474;-52
2023/05/21 04:08:05;;;;;;;24.30;14.55;;;;;;;12.99;98.96;97581.28;10373956;28;20024;-51
2023/05/21 04:13:05;;;;;;;25.30;15.07;;;;;;;12.99;98.84;97576.06;10373679;28;20113;-51
2023/05/21 04:18:04;;;;;;;26.98;15.43;;;;;;;13.02;98.51;97584.69;10373435;28;20112;-52
2023/05/21 04:23:03;;;;;;;;;;;;;;;12.88;98.50;97584.00;10374124;28;20033;-50
2023/05/21 04:28:02;;;;;;;29.77;16.35;;;;;;;12.87;98.72;97595.31;10372322;28;19920;-52
2023/05/21 04:33:01;;;;;;;;;;;;;;;12.96;99.20;97595.19;10372649;28;20071;-52
2023/05/21 04:38:00;;;;;;;29.17;17.75;;;;;;;13.11;98.44;97600.19;10372389;28;19977;-51
2023/05/21 04:43:00;;;;;;;;;;;;;;;13.28;98.49;97596.47;10372492;28;20104;-52
2023/05/21 04:47:59;;;;;;;25.02;15.88;;;;;;;13.38;97.90;97597.25;10371951;28;19955;-49
2023/05/21 04:52:58;;;;;;;;;;;;;;;13.35;97.95;97595.50;10372142;28;20133;-51
2023/05/21 04:57:57;;;;;;;29.35;17.63;;;;;;;13.48;97.30;97589.25;10371568;28;20021;-52
2023/05/21 05:02:55;;;;;;;;;;;;;;;13.52;97.18;97595.28;10371893;28;20044;-50
2023/05/21 05:07:56;;;;;;;18.58;13.02;;;;;;;13.53;96.04;97590.03;10370623;28;19912;-52
2023/05/21 05:12:55;;;;;;;19.52;13.50;;;;;;;13.27;96.34;97595.63;10370711;28;20068;-52
2023/05/21 05:17:55;;;;;;;;;;;;;;;13.21;97.18;97594.84;10370961;28;20037;-51
2023/05/21 05:22:54;;;;;;;20.00;12.98;;;;;;;13.20;96.56;97593.13;10370787;28;20000;-52
2023/05/21 05:27:52;;;;;;;;;;;;;;;13.23;96.83;97606.13;10359029;28;20056;-50
2023/05/21 05:32:51;;;;;;;22.00;13.57;;;;;;;13.15;97.21;97596.66;10328196;28;19927;-52
2023/05/21 05:37:50;;;;;;;18.15;11.98;;;;;;;13.26;96.11;97598.28;10328339;28;20112;-50
2023/05/21 05:42:51;;;;;;;;;;;;;;;13.40;95.05;97596.31;10328414;28;20120;-51
2023/05/21 05:47:50;;;;;;;19.15;13.65;;;;;;;13.53;95.60;97608.28;10327368;28;19967;-52
2023/05/21 05:52:50;;;;;;;;;;;;;;;13.64;94.86;97612.50;10328350;28;20077;-51
2023/05/21 05:57:48;;;;;;;17.13;12.27;;;;;;;13.74;94.68;97601.88;10327312;28;20430;-52
2023/05/21 06:02:47;;;;;;;;;;;;;;;13.91;94.54;97593.81;10327439;28;20507;-51
2023/05/21 06:07:46;;;;;;;15.93;11.70;;;;;;;14.09;94.15;97591.75;10327600;28;20281;-52
2023/05/21 06:12:45;;;;;;;;;;;;;;;14.17;93.94;97597.69;10326679;28;20136;-52
2023/05/21 06:17:44;;;;;;;20.95;13.43;;;;;;;14.34;92.56;97581.75;10326483;28;19917;-51
2023/05/21 06:22:43;;;;;;;;;;;;;;;14.46;91.22;97580.66;10326954;28;20041;-52
2023/05/21 06:27:41;;;;;;;25.27;18.20;;;;;;;14.60;91.44;97573.41;10325981;28;20380;-51
2023/05/21 06:32:41;;;;;;;;;;;;;;;14.68;91.85;97584.53;10326795;28;20591;-52
2023/05/21 06:37:41;;;;;;;26.35;19.42;;;;;;;14.59;91.06;97529.88;10324381;28;19955;-52
2023/05/21 06:42:40;;;;;;;24.73;18.55;;;;;;;14.86;90.17;97538.94;10325375;28;20120;-52
2023/05/21 06:47:39;;;;;;;25.17;19.67;;;;;;;15.18;88.74;97577.44;10325292;28;20029;-52
2023/05/21 06:52:38;;;;;;;24.05;19.60;;;;;;;15.39;87.49;97572.63;10326281;28;20076;-52
2023/05/21 06:57:37;;;;;;;26.60;19.75;;;;;;;15.55;86.61;97576.59;10326128;28;20056;-52
2023/05/21 07:02:36;;;;;;;;;;;;;;;15.62;86.71;97575.53;10326849;28;20057;-52
2023/05/21 07:07:35;;;;;;;30.03;19.47;;;;;;;15.77;86.83;97576.06;10326345;28;19994;-51
2023/05/21 07:12:34;;;;;;;25.08;17.55;;;;;;;16.13;85.39;97570.81;10326421;28;20088;-50
2023/05/21 07:17:33;;;;;;;27.67;19.92;;;;;;;16.49;85.46;97572.44;10324461;28;20041;-53
2023/05/21 07:22:32;;;;;;;22.75;18.27;;;;;;;17.30;85.02;97582.34;10325501;28;20117;-52
2023/05/21 07:27:31;;;;;;;25.08;19.83;;;;;;;17.98;82.04;97580.22;10325631;28;20520;-52
2023/05/21 07:32:30;;;;;;;22.63;17.75;;;;;;;17.76;77.87;97548.53;10324860;28;20562;-52
2023/05/21 07:37:29;;;;;;;22.52;17.05;;;;;;;17.90;76.85;97574.38;10325331;28;20041;-52
2023/05/21 07:42:29;;;;;;;23.67;17.30;;;;;;;17.72;78.02;97539.91;10323886;28;20500;-51
2023/05/21 07:47:28;;;;;;;21.13;15.57;;;;;;;17.99;75.80;97560.94;10324098;28;20479;-52
2023/05/21 07:52:27;;;;;;;22.30;14.63;;;;;;;18.29;76.12;97564.28;10324449;28;20591;-50
2023/05/21 07:57:28;;;;;;;19.17;13.82;;;;;;;18.78;76.31;97556.41;10323449;28;20483;-52
2023/05/21 08:02:27;;;;;;;15.35;12.02;;;;;;;19.34;72.27;97553.38;10323892;28;20063;-53
2023/05/21 08:07:26;;;;;;;15.05;11.40;;;;;;;19.40;68.54;97547.88;10324251;28;20164;-50
2023/05/21 08:12:25;;;;;;;15.35;11.55;;;;;;;19.54;69.46;97522.78;10322231;28;20072;-52
2023/05/21 08:17:24;;;;;;;11.43;9.20;;;;;;;19.63;69.25;97536.44;10324436;28;20025;-52
2023/05/21 08:22:23;;;;;;;10.77;8.55;;;;;;;19.75;66.48;97532.47;10322797;28;20124;-52
2023/05/21 08:27:22;;;;;;;12.25;7.93;;;;;;;19.72;64.72;97522.06;10323116;28;20368;-51
2023/05/21 08:32:21;;;;;;;10.73;8.38;;;;;;;19.86;59.90;97532.00;10324521;28;20031;-52
2023/05/21 08:37:20;;;;;;;11.02;7.90;;;;;;;19.89;60.77;97536.31;10323654;28;20113;-52
2023/05/21 08:42:35;;;;;;;11.45;7.97;;;;;;;19.83;63.40;97487.38;10325691;28;20057;-52
2023/05/21 08:47:38;;;;;;;11.43;7.72;;;;;;;20.16;58.76;97521.94;10331404;28;20067;-52
2023/05/21 08:52:37;;;;;;;9.90;7.20;;;;;;;19.83;57.88;97511.06;10331662;28;20080;-51
2023/05/21 08:57:39;;;;;;;11.10;8.20;;;;;;;19.64;59.85;97521.50;10331363;28;20084;-54
2023/05/21 09:02:43;;;;;;;10.45;7.57;;;;;;;19.57;58.91;97520.06;10323086;28;20124;-52
2023/05/21 09:07:47;;;;;;;11.43;6.90;;;;;;;19.41;58.56;97515.38;10322918;28;20809;-55
2023/05/21 09:12:47;;;;;;;10.02;7.32;;;;;;;19.48;60.66;97508.09;10326101;28;20104;-52
2023/05/21 09:17:47;;;;;;;12.50;8.15;;;;;;;19.39;61.70;97490.03;10326727;28;20153;-52
2023/05/21 09:22:47;;;;;;;11.00;7.68;;;;;;;19.39;60.08;97500.56;10324179;28;20154;-52
2023/05/21 09:27:46;;;;;;;12.15;7.70;;;;;;;19.59;60.52;97499.78;10326558;28;20104;-53
2023/05/21 09:32:52;;;;;;;8.80;6.90;;;;;;;19.39;63.75;97463.72;10322381;28;20044;-53
2023/05/21 09:37:52;;;;;;;11.50;7.22;;;;;;;19.55;61.49;97495.53;10328470;28;20108;-53
2023/05/21 09:42:53;;;;;;;9.93;7.22;;;;;;;19.16;62.44;97477.84;10330753;28;20496;-53
2023/05/21 09:47:54;;;;;;;10.70;7.55;;;;;;;19.17;64.49;97490.91;10328812;28;20124;-53
2023/05/21 09:52:54;;;;;;;12.27;7.47;;;;;;;19.24;63.74;97481.00;10324427;28;20515;-51
2023/05/21 09:57:53;;;;;;;10.32;7.65;;;;;;;19.40;63.91;97478.59;10326850;28;20112;-54
2023/05/21 10:02:59;;;;;;;10.82;6.70;;;;;;;19.59;63.18;97476.09;10320843;28;20112;-52
2023/05/21 10:08:01;;;;;;;8.20;6.65;;;;;;;20.05;63.75;97458.34;10317725;28;20155;-52
2023/05/21 10:13:05;;;;;;;8.25;6.57;;;;;;;19.92;61.77;97462.44;10320222;28;20116;-53
2023/05/21 10:18:05;;;;;;;11.65;6.88;;;;;;;20.12;62.70;97454.50;10322436;28;20132;-52
2023/05/21 10:23:05;;;;;;;8.68;7.05;;;;;;;20.49;62.18;97442.31;10328479;28;20152;-54
2023/05/21 10:28:05;;;;;;;9.38;6.70;;;;;;;20.99;61.32;97446.19;10326130;28;20526;-52
2023/05/21 10:33:05;;;;;;;9.77;6.97;;;;;;;21.38;59.62;97435.47;10317605;28;20579;-52
2023/05/21 10:38:05;;;;;;;10.63;6.78;;;;;;;21.60;57.85;97419.41;10318523;28;20140;-52
2023/05/21 10:43:26;;;;;;;9.07;6.88;;;;;;;21.75;58.31;97421.25;10312660;28;20120;-51
2023/05/21 10:48:43;;;;;;;11.00;6.75;;;;;;;21.65;54.23;97416.53;10317271;28;20116;-52
2023/05/21 10:54:21;;;;;;;9.38;6.35;;;;;;;22.02;52.57;97409.38;10319759;28;20561;-53
2023/05/21 10:59:50;;;;;;;8.95;5.35;;;;;;;21.88;50.83;97410.06;10298344;28;20121;-52
2023/05/21 11:04:57;;;;;;;7.90;5.88;;;;;;;21.88;51.93;97397.72;10319256;28;20129;-54
2023/05/21 11:10:36;;;;;;;8.27;6.22;;;;;;;22.22;52.22;97388.03;10313660;28;20470;-53
2023/05/21 11:15:56;;;;;;;12.73;6.03;;;;;;;22.63;48.12;97369.03;10314645;28;20444;-53
2023/05/21 11:21:11;;;;;;;7.78;5.65;;;;;;;23.03;48.06;97361.53;10319963;28;20116;-53
2023/05/21 11:26:10;;;;;;;10.13;5.50;;;;;;;22.94;46.73;97354.94;10318628;28;20251;-52
2023/05/21 11:31:21;;;;;;;9.27;5.40;;;;;;;22.66;41.58;97342.41;10323874;28;20132;-53
2023/05/21 11:36:21;;;;;;;7.95;5.55;;;;;;;22.33;42.78;97337.22;10325127;28;20128;-53
2023/05/21 11:41:21;;;;;;;14.40;6.00;;;;;;;22.60;40.94;97340.97;10325822;28;20064;-50
2023/05/21 11:46:20;;;;;;;9.15;4.88;;;;;;;22.37;39.21;97329.03;10324252;28;20072;-52
2023/05/21 11:51:20;;;;;;;10.98;5.55;;;;;;;22.71;39.51;97337.72;10324607;28;20128;-53
2023/05/21 11:56:19;;;;;;;10.10;6.18;;;;;;;23.23;39.42;97341.81;10325120;28;20053;-53
2023/05/21 12:01:22;;;;;;;18.70;6.22;;;;;;;23.12;39.08;97347.75;10324729;28;20412;-52
2023/05/21 12:06:25;;;;;;;11.50;5.90;;;;;;;22.51;40.59;97293.91;10320751;28;20143;-53
2023/05/21 12:11:26;;;;;;;12.23;6.00;;;;;;;22.01;42.45;97346.91;10319659;28;20060;-52
2023/05/21 12:16:25;;;;;;;9.13;6.13;;;;;;;21.66;43.39;97317.88;10321253;28;20532;-51
2023/05/21 12:21:27;;;;;;;7.93;5.28;;;;;;;21.95;41.44;97333.06;10323702;28;20116;-52
2023/05/21 12:26:27;;;;;;;10.10;6.13;;;;;;;22.16;42.50;97346.09;10330625;28;20113;-52
2023/05/21 12:31:29;;;;;;;12.50;5.88;;;;;;;22.34;44.68;97342.44;10326399;28;20207;-53
2023/05/21 12:36:33;;;;;;;11.55;5.68;;;;;;;22.94;43.21;97338.22;10320873;28;20108;-53
2023/05/21 12:41:32;;;;;;;12.70;5.95;;;;;;;23.36;42.53;97334.00;10327240;28;20120;-51
2023/05/21 12:46:31;;;;;;;9.63;6.30;;;;;;;23.45;41.91;97338.75;10329639;28;20041;-52
2023/05/21 12:51:39;;;;;;;10.90;5.93;;;;;;;23.17;41.42;97334.25;10329633;28;20508;-51
2023/05/21 12:56:45;;;;;;;10.00;6.30;;;;;;;23.11;42.51;97319.56;10330750;28;20061;-53
2023/05/21 13:01:47;;;;;;;9.02;6.10;;;;;;;23.13;40.15;97322.97;10331340;28;20559;-52
2023/05/21 13:06:45;;;;;;;8.02;5.25;;;;;;;23.39;40.10;97317.94;10330967;28;20108;-52
2023/05/21 13:11:44;;;;;;;12.77;5.63;;;;;;;23.55;39.60;97302.84;10329966;28;20108;-52
2023/05/21 13:16:46;;;;;;;11.93;5.80;;;;;;;23.52;39.55;97271.28;10330694;28;20036;-53
2023/05/21 13:21:45;;;;;;;8.85;5.35;;;;;;;24.00;38.20;97308.06;10330442;28;20072;-52
2023/05/21 13:26:43;;;;;;;11.88;5.15;;;;;;;23.83;37.35;97311.78;10329958;28;20040;-52
2023/05/21 13:31:43;;;;;;;8.32;4.95;;;;;;;24.00;35.98;97293.00;10329834;28;20492;-52
2023/05/21 13:36:42;;;;;;;10.18;5.95;;;;;;;23.95;36.03;97284.50;10330125;28;20070;-53
2023/05/21 13:41:42;;;;;;;8.50;5.82;;;;;;;23.52;37.30;97288.97;10329290;28;20087;-55
2023/05/21 13:46:41;;;;;;;12.90;6.13;;;;;;;23.19;39.20;97297.97;10329266;28;20691;-52
2023/05/21 13:51:40;;;;;;;9.73;5.78;;;;;;;22.97;38.97;97275.38;10327401;28;20413;-51
2023/05/21 13:56:39;;;;;;;10.98;5.53;;;;;;;23.08;37.57;97276.56;10328391;28;20127;-52
2023/05/21 14:01:38;;;;;;;9.38;5.50;;;;;;;23.15;38.17;97278.75;10329137;28;20439;-49
2023/05/21 14:06:37;;;;;;;11.52;5.00;;;;;;;23.21;37.64;97262.50;10328305;28;20033;-52
2023/05/21 14:11:37;;;;;;;11.52;5.70;;;;;;;23.43;37.59;97277.94;10328052;28;20033;-53
2023/05/21 14:16:36;;;;;;;8.48;4.55;;;;;;;23.47;36.59;97278.66;10327989;28;20164;-52
2023/05/21 14:21:34;;;;;;;8.43;5.03;;;;;;;23.50;37.09;97267.03;10327966;28;20124;-54
2023/05/21 14:26:35;;;;;;;8.55;4.53;;;;;;;23.44;34.87;97258.47;10327344;28;20037;-51
2023/05/21 14:31:35;;;;;;;9.15;4.75;;;;;;;23.32;33.98;97255.72;10327417;28;20156;-50
2023/05/21 14:36:35;;;;;;;7.82;4.32;;;;;;;23.13;32.82;97232.16;10327290;28;20060;-53
2023/05/21 14:41:38;;;;;;;8.77;4.63;;;;;;;23.06;33.41;97221.06;10325855;28;20065;-52
2023/05/21 14:46:37;;;;;;;10.02;4.90;;;;;;;23.19;32.46;97243.22;10326501;28;20576;-53
2023/05/21 14:51:36;;;;;;;8.98;4.65;;;;;;;23.13;32.26;97243.56;10326456;28;20136;-50
2023/05/21 14:56:35;;;;;;;8.75;4.20;;;;;;;23.05;32.46;97259.06;10326787;28;20100;-51
2023/05/21 15:01:34;;;;;;;8.10;4.70;;;;;;;22.92;31.70;97223.69;10326640;28;20603;-53
2023/05/21 15:06:33;;;;;;;7.35;4.35;;;;;;;22.97;32.12;97261.31;10324607;28;20582;-50
2023/05/21 15:11:33;;;;;;;9.02;4.50;;;;;;;23.22;32.91;97263.34;10325990;28;20073;-52
2023/05/21 15:16:32;;;;;;;7.53;4.15;;;;;;;22.86;32.38;97261.06;10325389;28;20118;-52
2023/05/21 15:21:30;;;;;;;8.20;4.53;;;;;;;22.93;33.55;97239.47;10325674;28;20106;-51
2023/05/21 15:26:29;;;;;;;9.15;4.30;;;;;;;23.25;34.87;97264.97;10324837;28;20105;-52
2023/05/21 15:31:30;;;;;;;7.13;4.57;;;;;;;23.05;35.59;97240.56;10325350;28;20115;-50
2023/05/21 15:36:29;;;;;;;8.70;5.20;;;;;;;23.15;35.97;97262.88;10323133;28;20120;-50
2023/05/21 15:41:28;;;;;;;8.40;4.95;;;;;;;23.32;36.58;97258.34;10324431;28;20037;-52
2023/05/21 15:46:27;;;;;;;8.20;4.82;;;;;;;23.46;35.76;97254.88;10338781;28;20196;-51
2023/05/21 15:51:26;;;;;;;6.40;4.30;;;;;;;23.54;34.83;97248.19;10325027;28;20085;-53
2023/05/21 15:56:25;;;;;;;7.72;5.15;;;;;;;23.48;35.54;97253.00;10324251;28;20110;-53
2023/05/21 16:01:25;;;;;;;10.15;4.88;;;;;;;23.42;35.69;97270.13;10324371;28;20041;-51
2023/05/21 16:06:24;;;;;;;8.70;5.50;;;;;;;23.28;36.15;97268.28;10323001;28;20483;-53
2023/05/21 16:11:25;;;;;;;9.38;4.40;;;;;;;22.96;36.69;97278.97;10324061;28;20485;-53
2023/05/21 16:16:24;;;;;;;8.25;4.68;;;;;;;22.77;37.02;97257.19;10324205;28;20132;-51
2023/05/21 16:21:23;;;;;;;12.77;5.30;;;;;;;22.48;36.92;97240.31;10323966;28;20037;-51
2023/05/21 16:26:21;;;;;;;6.78;4.90;;;;;;;22.73;37.15;97282.94;10324116;28;20064;-53
2023/05/21 16:31:21;;;;;;;10.25;5.20;;;;;;;22.70;37.54;97288.41;10324186;28;20120;-53
2023/05/21 16:36:20;;;;;;;10.77;5.63;;;;;;;22.67;38.14;97296.53;10324188;28;20132;-53
2023/05/21 16:41:20;;;;;;;9.50;4.97;;;;;;;22.64;38.54;97304.63;10323917;28;20113;-52
2023/05/21 16:46:19;;;;;;;8.98;5.03;;;;;;;22.60;40.37;97300.47;10323383;28;20116;-52
2023/05/21 16:51:18;;;;;;;9.50;5.53;;;;;;;22.52;41.09;97300.88;10323709;28;20513;-52
2023/05/21 16:56:17;;;;;;;9.48;4.90;;;;;;;22.46;41.09;97303.00;10324527;28;20416;-53
2023/05/21 17:01:16;;;;;;;10.13;5.10;;;;;;;22.32;40.91;97309.94;10323772;28;20107;-53
2023/05/21 17:06:15;;;;;;;10.25;6.05;;;;;;;22.10;40.86;97310.25;10328300;28;20704;-53
2023/05/21 17:11:16;;;;;;;9.20;5.35;;;;;;;21.82;40.79;97321.44;10326610;28;20111;-52
2023/05/21 17:16:15;;;;;;;10.30;5.07;;;;;;;21.57;41.16;97327.16;10329802;28;20325;-52
2023/05/21 17:21:13;;;;;;;12.00;5.78;;;;;;;21.42;43.10;97330.59;10330841;28;20337;-51
2023/05/21 17:26:13;;;;;;;9.73;5.50;;;;;;;21.01;44.20;97334.38;10329705;28;20047;-53
2023/05/21 17:31:12;;;;;;;10.30;5.50;;;;;;;20.39;45.66;97346.13;10330101;28;20053;-53
2023/05/21 17:36:11;;;;;;;10.93;6.22;;;;;;;20.07;47.09;97375.69;10329650;28;20129;-53
2023/05/21 17:41:10;;;;;;;9.35;5.40;;;;;;;19.65;46.75;97397.72;10329586;28;20044;-52
2023/05/21 17:46:09;;;;;;;9.30;4.75;;;;;;;19.07;49.13;97415.09;10328699;28;20050;-52
2023/05/21 17:51:08;;;;;;;11.88;5.88;;;;;;;18.75;50.23;97435.59;10329473;28;20734;-51
2023/05/21 17:56:10;;;;;;;10.07;4.85;;;;;;;18.30;53.46;97462.69;10328356;28;20061;-53
2023/05/21 18:01:09;;;;;;;11.02;5.40;;;;;;;18.05;59.83;97460.94;10329253;28;20565;-51
2023/05/21 18:06:08;;;;;;;9.80;6.38;;;;;;;17.75;65.86;97432.22;10328635;28;20057;-53
2023/05/21 18:11:07;;;;;;;10.00;5.53;;;;;;;17.42;67.20;97425.50;10329052;28;20045;-52
2023/05/21 18:16:06;;;;;;;10.40;6.00;;;;;;;17.33;68.47;97429.25;10327365;28;20037;-52
2023/05/21 18:21:05;;;;;;;8.18;5.82;;;;;;;17.16;69.75;97437.69;10329184;28;20466;-52
2023/05/21 18:26:04;;;;;;;12.32;6.57;;;;;;;16.95;70.93;97435.78;10327164;28;20034;-53
2023/05/21 18:31:03;;;;;;;11.75;7.40;;;;;;;16.86;71.35;97435.16;10327775;28;20069;-52
2023/05/21 18:36:02;;;;;;;12.93;9.48;;;;;;;16.59;73.29;97452.53;10327136;28;20032;-53
2023/05/21 18:41:03;;;;;;;13.30;9.35;;;;;;;16.29;75.59;97459.53;10326237;28;20072;-50
2023/05/21 18:46:02;;;;;;;11.68;7.65;;;;;;;16.18;77.72;97457.22;10326751;28;20079;-53
2023/05/21 18:51:01;;;;;;;7.10;5.40;;;;;;;15.83;78.77;97464.31;10325159;28;20132;-52
2023/05/21 18:56:00;;;;;;;11.73;7.63;;;;;;;15.86;78.70;97465.97;10326320;28;20326;-52
2023/05/21 19:00:59;;;;;;;13.90;6.30;;;;;;;15.93;78.77;97478.00;10326296;28;20082;-53
2023/05/21 19:05:58;;;;;;;13.05;7.55;;;;;;;15.98;79.08;97485.72;10325829;28;20470;-52
2023/05/21 19:10:57;;;;;;;10.57;6.32;;;;;;;15.97;78.58;97500.53;10325815;28;20322;-50
2023/05/21 19:15:57;;;;;;;;;;;;;;;16.01;78.60;97507.41;10325617;28;20087;-52
2023/05/21 19:20:56;;;;;;;8.93;5.93;;;;;;;16.02;78.65;97508.25;10326014;28;19964;-53
2023/05/21 19:25:55;;;;;;;9.63;6.60;;;;;;;16.04;79.23;97512.59;10322904;28;20120;-52
2023/05/21 19:30:54;;;;;;;11.88;6.97;;;;;;;15.69;79.97;97479.44;10325351;28;20032;-53
2023/05/21 19:35:53;;;;;;;11.50;7.38;;;;;;;15.83;80.69;97523.59;10325423;28;20133;-52
2023/05/21 19:40:52;;;;;;;10.75;7.80;;;;;;;15.77;82.15;97527.22;10323938;28;20045;-52
2023/05/21 19:45:51;;;;;;;;;;;;;;;15.71;82.56;97529.97;10323477;28;20469;-52
2023/05/21 19:50:50;;;;;;;10.27;7.20;;;;;;;15.45;82.50;97507.09;10323367;28;19921;-52
2023/05/21 19:55:49;;;;;;;11.50;6.78;;;;;;;15.52;82.83;97528.72;10323230;28;20125;-52
2023/05/21 20:00:49;;;;;;;11.60;7.40;;;;;;;15.44;83.49;97536.75;10324872;28;20036;-52
2023/05/21 20:05:48;;;;;;;11.98;8.15;;;;;;;15.34;83.12;97525.66;10323182;28;20112;-51
2023/05/21 20:10:47;;;;;;;11.20;7.93;;;;;;;15.23;83.48;97535.50;10324628;28;20065;-52
2023/05/21 20:15:46;;;;;;;12.57;7.53;;;;;;;15.03;83.85;97533.31;10324321;28;20487;-49
2023/05/21 20:20:46;;;;;;;15.38;7.65;;;;;;;14.91;84.27;97529.22;10323489;28;20125;-52
2023/05/21 20:25:45;;;;;;;14.35;8.52;;;;;;;14.61;85.72;97515.91;10321857;28;20108;-53
2023/05/21 20:30:58;;;;;;;12.00;8.43;;;;;;;14.66;86.08;97535.84;10323304;28;20044;-52
2023/05/21 20:35:57;;;;;;;11.60;8.93;;;;;;;14.50;85.90;97520.50;10324127;28;20129;-52
2023/05/21 20:40:57;;;;;;;14.75;9.23;;;;;;;14.33;86.08;97501.69;10328936;28;20124;-50
2023/05/21 20:45:58;;;;;;;13.48;9.48;;;;;;;14.20;85.68;97499.34;10329920;28;20077;-52
2023/05/21 20:50:58;;;;;;;18.25;10.05;;;;;;;14.37;86.58;97537.28;10331373;28;20136;-52
2023/05/21 20:56:00;;;;;;;14.00;10.85;;;;;;;14.30;86.51;97547.00;10330825;28;20128;-52
2023/05/21 21:01:00;;;;;;;16.00;11.02;;;;;;;14.22;87.02;97543.69;10331471;28;20065;-50
2023/05/21 21:05:59;;;;;;;16.63;10.55;;;;;;;14.14;87.17;97543.81;10329991;28;20568;-50
2023/05/21 21:10:59;;;;;;;18.00;11.68;;;;;;;14.02;87.51;97541.44;10331157;28;20123;-52
2023/05/21 21:15:57;;;;;;;16.77;11.35;;;;;;;13.97;87.85;97551.94;10328777;28;20444;-51
2023/05/21 21:20:56;;;;;;;;;;;;;;;13.94;88.74;97545.94;10329503;28;20595;-49
2023/05/21 21:25:55;;;;;;;12.68;8.85;;;;;;;13.89;88.74;97551.25;10330715;28;20391;-49
2023/05/21 21:30:54;;;;;;;;;;;;;;;13.96;88.81;97552.84;10331048;28;20620;-49
2023/05/21 21:35:53;;;;;;;14.35;8.98;;;;;;;13.83;88.88;97538.28;10329514;28;19920;-49
2023/05/21 21:40:53;;;;;;;;;;;;;;;13.91;89.21;97561.63;10330324;28;20061;-53
2023/05/21 21:45:52;;;;;;;12.95;9.43;;;;;;;13.87;89.65;97558.22;10328602;28;20393;-53
2023/05/21 21:50:51;;;;;;;;;;;;;;;13.89;89.33;97560.78;10329015;28;20125;-51
2023/05/21 21:55:50;;;;;;;12.07;8.43;;;;;;;13.76;89.55;97553.19;10328817;28;20012;-53
2023/05/21 22:00:49;;;;;;;16.23;9.20;;;;;;;13.77;90.22;97554.03;10325322;28;20077;-53
2023/05/21 22:05:49;;;;;;;;;;;;;;;13.81;89.87;97560.06;10328840;28;20116;-51
2023/05/21 22:10:48;;;;;;;13.75;8.25;;;;;;;13.81;90.06;97555.72;10326440;28;20008;-52
2023/05/21 22:15:48;;;;;;;13.25;8.60;;;;;;;13.75;89.64;97534.97;10325601;28;20176;-52
2023/05/21 22:20:47;;;;;;;13.40;8.52;;;;;;;13.83;89.78;97558.31;10323921;28;20035;-52
2023/05/21 22:25:46;;;;;;;;;;;;;;;13.79;90.15;97552.25;10325252;28;20096;-53
2023/05/21 22:30:45;;;;;;;14.87;9.17;;;;;;;13.77;89.77;97551.44;10326603;28;19921;-54
2023/05/21 22:35:44;;;;;;;;;;;;;;;13.71;90.49;97544.59;10327819;28;20551;-52
2023/05/21 22:40:43;;;;;;;15.40;10.45;;;;;;;13.50;91.32;97547.50;10326685;28;20358;-52
2023/05/21 22:45:43;;;;;;;;;;;;;;;13.50;92.19;97550.97;10327344;28;20132;-50
2023/05/21 22:50:41;;;;;;;;;;;;;;;13.45;91.94;97549.34;10327172;28;20447;-53
2023/05/21 22:55:41;;;;;;;18.50;11.20;;;;;;;13.32;91.97;97504.34;10325410;28;20510;-52
2023/05/21 23:00:40;;;;;;;17.70;12.02;;;;;;;13.46;91.86;97544.09;10326041;28;20076;-51
2023/05/21 23:05:39;;;;;;;;;;;;;;;13.36;91.92;97543.38;10326862;28;20048;-52
2023/05/21 23:10:37;;;;;;;16.33;10.98;;;;;;;13.29;91.87;97538.28;10326200;28;20114;-50
2023/05/21 23:15:37;;;;;;;;;;;;;;;13.25;92.18;97547.88;10325850;28;20341;-52
2023/05/21 23:20:39;;;;;;;20.25;11.65;;;;;;;13.03;92.00;97510.88;10325897;28;19968;-52